Time;durP1;ratioP1;P1;durP2;ratioP2;P2;SDS_P1;SDS_P2;PMS_P1;PMS_P2;Temp;Humidity;BMP_temperature;BMP_pressure;BME280_temperature;BME280_humidity;BME280_pressure;Samples;Min_cycle;Max_cycle;Signal;HPM_P1;HPM_P2
2022/10/18 00:01:18;;;;;;;6.67;6.03;;;;;;;;;;5105837;28;20541;-82
2022/10/18 00:03:45;;;;;;;6.53;5.53;;;;;;;;;;5103530;28;20224;-81
2022/10/18 00:06:12;;;;;;;6.77;5.90;;;;;;;;;;5112203;28;20200;-81
2022/10/18 00:08:40;;;;;;;10.17;6.80;;;;;;;;;;5092922;28;20264;-82
2022/10/18 00:11:07;;;;;;;7.27;6.57;;;;;;;;;;5092406;28;20208;-81
2022/10/18 00:13:35;;;;;;;10.60;5.97;;;;;;;;;;5091996;28;20715;-82
2022/10/18 00:16:04;;;;;;;8.10;6.03;;;;;;;;;;5092567;28;20201;-82
2022/10/18 00:18:31;;;;;;;13.60;8.00;;;;;;;;;;5103750;28;20254;-82
2022/10/18 00:20:59;;;;;;;7.10;6.33;;;;;;;;;;5112542;28;20196;-82
2022/10/18 00:23:27;;;;;;;7.70;5.90;;;;;;;;;;5110978;28;20231;-82
2022/10/18 00:26:01;;;;;;;9.20;6.40;;;;;;;;;;5092398;28;20208;-82
2022/10/18 00:28:28;;;;;;;9.73;6.87;;;;;;;;;;5097653;28;20790;-81
2022/10/18 00:30:55;;;;;;;6.50;5.87;;;;;;;;;;5112420;28;20204;-81
2022/10/18 00:33:23;;;;;;;9.87;6.13;;;;;;;;;;5107598;28;20229;-81
2022/10/18 00:35:50;;;;;;;8.03;6.60;;;;;;;;;;5096114;28;20215;-82
2022/10/18 00:38:18;;;;;;;7.20;6.10;;;;;;;;;;5110692;28;20236;-82
2022/10/18 00:40:45;;;;;;;7.03;6.17;;;;;;;;;;5096967;28;20651;-82
2022/10/18 00:43:15;;;;;;;8.37;6.40;;;;;;;;;;5095302;28;20243;-82
2022/10/18 00:45:42;;;;;;;9.67;5.93;;;;;;;;;;5095923;28;20228;-82
2022/10/18 00:48:09;;;;;;;8.53;5.83;;;;;;;;;;5095143;28;20236;-82
2022/10/18 00:50:38;;;;;;;6.90;5.90;;;;;;;;;;5095761;28;20208;-82
2022/10/18 00:53:07;;;;;;;9.53;5.77;;;;;;;;;;5103502;28;20232;-83
2022/10/18 00:55:34;;;;;;;12.10;6.63;;;;;;;;;;5115987;28;20215;-82
2022/10/18 00:58:02;;;;;;;14.97;6.67;;;;;;;;;;5115163;28;20615;-82
2022/10/18 01:00:29;;;;;;;10.40;6.60;;;;;;;;;;5110978;28;20227;-82
2022/10/18 01:02:56;;;;;;;9.67;6.50;;;;;;;;;;5103626;27;20224;-82
2022/10/18 01:05:23;;;;;;;12.77;7.00;;;;;;;;;;5103552;28;20204;-82
2022/10/18 01:08:14;;;;;;;11.90;7.10;;;;;;;;;;5112444;28;20617;-82
2022/10/18 01:10:50;;;;;;;10.23;7.33;;;;;;;;;;5080019;28;20204;-82
2022/10/18 01:13:24;;;;;;;9.20;7.80;;;;;;;;;;5094721;28;20239;-82
2022/10/18 01:15:55;;;;;;;10.87;6.90;;;;;;;;;;5111467;28;20206;-82
2022/10/18 01:18:25;;;;;;;9.37;7.33;;;;;;;;;;5102638;28;20704;-82
2022/10/18 01:21:14;;;;;;;10.73;7.23;;;;;;;;;;5095267;28;20547;-82
2022/10/18 01:23:56;;;;;;;11.40;7.30;;;;;;;;;;5094437;28;20285;-82
2022/10/18 01:26:34;;;;;;;8.83;7.03;;;;;;;;;;5066781;28;20196;-82
2022/10/18 01:29:09;;;;;;;10.40;7.17;;;;;;;;;;5114168;28;20224;-82
2022/10/18 01:31:40;;;;;;;7.57;6.47;;;;;;;;;;5113796;28;20208;-82
2022/10/18 01:34:09;;;;;;;8.63;7.40;;;;;;;;;;5103657;28;20227;-82
2022/10/18 01:36:37;;;;;;;12.03;7.40;;;;;;;;;;5114865;28;20207;-83
2022/10/18 01:39:11;;;;;;;8.47;7.13;;;;;;;;;;5097326;28;20239;-82
2022/10/18 01:41:39;;;;;;;9.00;7.00;;;;;;;;;;5113229;28;20187;-81
2022/10/18 01:44:08;;;;;;;12.33;6.87;;;;;;;;;;5093840;28;20235;-82
2022/10/18 01:46:38;;;;;;;11.23;6.43;;;;;;;;;;5096509;28;20209;-82
2022/10/18 01:49:05;;;;;;;11.07;7.23;;;;;;;;;;5114265;28;20243;-81
2022/10/18 01:51:33;;;;;;;9.20;6.67;;;;;;;;;;5101350;28;20201;-81
2022/10/18 01:54:00;;;;;;;9.17;6.67;;;;;;;;;;5112473;28;20235;-81
2022/10/18 01:56:31;;;;;;;7.53;6.50;;;;;;;;;;5114462;28;20204;-81
2022/10/18 01:59:06;;;;;;;9.33;5.93;;;;;;;;;;5105030;28;20233;-80
2022/10/18 02:01:38;;;;;;;10.93;6.43;;;;;;;;;;5106632;28;20207;-81
2022/10/18 02:04:11;;;;;;;13.57;6.20;;;;;;;;;;5107023;27;20226;-81
2022/10/18 02:06:40;;;;;;;15.67;6.60;;;;;;;;;;5111510;28;20193;-81
2022/10/18 02:09:10;;;;;;;6.13;5.53;;;;;;;;;;5093596;28;20232;-81
2022/10/18 02:11:38;;;;;;;9.30;6.33;;;;;;;;;;5104565;28;20208;-81
2022/10/18 02:14:07;;;;;;;7.20;6.50;;;;;;;;;;5099834;27;20240;-81
2022/10/18 02:16:36;;;;;;;7.70;6.47;;;;;;;;;;5095606;28;20207;-81
2022/10/18 02:19:05;;;;;;;12.23;6.80;;;;;;;;;;5093254;28;20240;-81
2022/10/18 02:21:34;;;;;;;7.67;5.80;;;;;;;;;;5097620;28;20200;-81
2022/10/18 02:24:02;;;;;;;6.90;6.23;;;;;;;;;;5113891;28;20232;-81
2022/10/18 02:26:30;;;;;;;8.37;6.47;;;;;;;;;;5114539;28;20200;-81
2022/10/18 02:28:57;;;;;;;6.60;6.00;;;;;;;;;;5113559;28;20232;-81
2022/10/18 02:31:26;;;;;;;7.47;6.67;;;;;;;;;;5105424;28;20197;-81
2022/10/18 02:33:54;;;;;;;8.97;6.70;;;;;;;;;;5106263;28;20262;-81
2022/10/18 02:36:24;;;;;;;9.63;6.80;;;;;;;;;;5110840;28;20201;-81
2022/10/18 02:38:54;;;;;;;9.67;6.90;;;;;;;;;;5093015;28;20713;-81
2022/10/18 02:41:25;;;;;;;13.13;7.77;;;;;;;;;;5099047;28;20199;-81
2022/10/18 02:43:52;;;;;;;11.50;7.37;;;;;;;;;;5103716;28;20232;-81
2022/10/18 02:46:19;;;;;;;8.60;7.43;;;;;;;;;;5093397;28;20211;-81
2022/10/18 02:48:46;;;;;;;10.93;6.93;;;;;;;;;;5092796;28;20243;-82
2022/10/18 02:51:13;;;;;;;15.30;7.00;;;;;;;;;;5096090;28;20213;-81
2022/10/18 02:53:41;;;;;;;9.53;6.87;;;;;;;;;;5095305;28;20267;-81
2022/10/18 02:56:09;;;;;;;7.97;6.77;;;;;;;;;;5094588;28;20200;-81
2022/10/18 02:58:36;;;;;;;10.00;6.57;;;;;;;;;;5112864;28;20236;-81
2022/10/18 03:01:04;;;;;;;9.57;7.20;;;;;;;;;;5107486;28;20303;-81
2022/10/18 03:03:31;;;;;;;10.63;7.43;;;;;;;;;;5092540;28;20240;-81
2022/10/18 03:05:58;;;;;;;10.13;6.93;;;;;;;;;;5093095;28;20220;-81
2022/10/18 03:08:25;;;;;;;11.03;6.83;;;;;;;;;;5092214;28;20233;-81
2022/10/18 03:10:52;;;;;;;9.70;7.10;;;;;;;;;;5092972;28;20212;-81
2022/10/18 03:13:21;;;;;;;11.30;7.30;;;;;;;;;;5092618;28;20233;-81
2022/10/18 03:15:48;;;;;;;10.77;7.20;;;;;;;;;;5092913;28;20224;-81
2022/10/18 03:18:16;;;;;;;12.30;7.17;;;;;;;;;;5092177;28;20236;-81
2022/10/18 03:20:43;;;;;;;13.27;7.47;;;;;;;;;;5093013;28;20221;-81
2022/10/18 03:23:10;;;;;;;16.07;7.13;;;;;;;;;;5094578;28;20262;-81
2022/10/18 03:25:37;;;;;;;8.07;6.70;;;;;;;;;;5113066;28;20203;-81
2022/10/18 03:28:04;;;;;;;8.10;7.27;;;;;;;;;;5112154;28;20236;-81
2022/10/18 03:30:33;;;;;;;13.87;7.17;;;;;;;;;;5112101;28;20575;-81
2022/10/18 03:33:00;;;;;;;12.37;7.10;;;;;;;;;;5092130;28;20255;-81
2022/10/18 03:35:27;;;;;;;11.60;7.23;;;;;;;;;;5092162;28;20239;-81
2022/10/18 03:37:54;;;;;;;12.30;8.43;;;;;;;;;;5091782;28;20243;-82
2022/10/18 03:40:21;;;;;;;10.53;7.10;;;;;;;;;;5092575;28;20205;-81
2022/10/18 03:42:48;;;;;;;12.70;8.27;;;;;;;;;;5092046;28;20224;-83
2022/10/18 03:45:15;;;;;;;10.63;7.70;;;;;;;;;;5108750;28;20219;-83
2022/10/18 03:47:44;;;;;;;15.03;8.50;;;;;;;;;;5111533;28;20239;-83
2022/10/18 03:50:11;;;;;;;12.90;8.80;;;;;;;;;;5112597;28;20192;-82
2022/10/18 03:52:38;;;;;;;14.50;10.40;;;;;;;;;;5112292;28;20232;-83
2022/10/18 03:55:06;;;;;;;15.23;11.30;;;;;;;;;;5112776;28;20224;-82
2022/10/18 03:57:33;;;;;;;19.33;13.73;;;;;;;;;;5108471;28;20228;-81
2022/10/18 04:00:00;;;;;;;21.93;14.77;;;;;;;;;;5109311;28;20207;-82
2022/10/18 04:02:27;;;;;;;27.83;15.87;;;;;;;;;;5102003;28;20223;-82
2022/10/18 04:04:57;;;;;;;28.53;16.47;;;;;;;;;;5112472;28;20196;-81
2022/10/18 04:07:24;;;;;;;29.43;18.50;;;;;;;;;;5112195;28;20228;-82
2022/10/18 04:09:51;;;;;;;35.27;20.97;;;;;;;;;;5112112;28;20238;-81
2022/10/18 04:12:18;;;;;;;30.47;18.77;;;;;;;;;;5111679;28;20230;-82
2022/10/18 04:14:45;;;;;;;30.47;18.70;;;;;;;;;;5106395;28;20228;-82
2022/10/18 04:17:12;;;;;;;28.53;18.97;;;;;;;;;;5115843;28;20284;-82
2022/10/18 04:19:40;;;;;;;34.10;20.67;;;;;;;;;;5111874;28;20729;-82
2022/10/18 04:22:09;;;;;;;32.13;19.67;;;;;;;;;;5109583;28;20297;-81
2022/10/18 04:24:36;;;;;;;34.57;20.80;;;;;;;;;;5109936;28;20196;-82
2022/10/18 04:27:03;;;;;;;32.63;19.33;;;;;;;;;;5111814;28;20204;-82
2022/10/18 04:29:30;;;;;;;31.27;19.73;;;;;;;;;;5111818;28;20236;-81
2022/10/18 04:31:57;;;;;;;34.93;18.73;;;;;;;;;;5111996;28;20219;-82
2022/10/18 04:34:24;;;;;;;35.50;20.63;;;;;;;;;;5111968;28;20204;-80
2022/10/18 04:36:51;;;;;;;35.43;21.33;;;;;;;;;;5097494;28;20204;-83
2022/10/18 04:39:20;;;;;;;37.67;19.33;;;;;;;;;;5091670;28;20235;-82
2022/10/18 04:41:47;;;;;;;32.10;19.63;;;;;;;;;;5091664;27;20213;-83
2022/10/18 04:44:14;;;;;;;33.30;19.80;;;;;;;;;;5091997;28;20254;-80
2022/10/18 04:46:41;;;;;;;34.53;20.73;;;;;;;;;;5091556;28;20213;-80
2022/10/18 04:49:08;;;;;;;29.87;18.97;;;;;;;;;;5090888;27;20700;-81
2022/10/18 04:51:35;;;;;;;36.70;20.00;;;;;;;;;;5091519;28;20591;-80
2022/10/18 04:54:03;;;;;;;32.20;18.60;;;;;;;;;;5096929;27;20232;-80
2022/10/18 04:56:31;;;;;;;27.83;19.07;;;;;;;;;;5111476;28;20224;-80
2022/10/18 04:58:58;;;;;;;31.67;18.80;;;;;;;;;;5111111;28;20240;-81
2022/10/18 05:01:25;;;;;;;33.10;18.63;;;;;;;;;;5111698;28;20699;-80
2022/10/18 05:03:53;;;;;;;34.57;18.27;;;;;;;;;;5111497;28;20236;-80
2022/10/18 05:06:21;;;;;;;30.70;18.57;;;;;;;;;;5111785;28;20200;-80
2022/10/18 05:08:48;;;;;;;32.53;19.97;;;;;;;;;;5111048;28;20240;-80
2022/10/18 05:11:15;;;;;;;32.20;19.40;;;;;;;;;;5111520;28;20211;-80
2022/10/18 05:13:43;;;;;;;33.00;19.67;;;;;;;;;;5111260;28;20236;-79
2022/10/18 05:16:10;;;;;;;35.80;19.90;;;;;;;;;;5111340;28;20247;-78
2022/10/18 05:18:38;;;;;;;27.10;19.17;;;;;;;;;;5111081;28;20243;-78
2022/10/18 05:21:05;;;;;;;31.47;19.10;;;;;;;;;;5115204;28;20212;-78
2022/10/18 05:23:32;;;;;;;32.30;19.97;;;;;;;;;;5114695;28;20228;-78
2022/10/18 05:26:02;;;;;;;35.17;19.47;;;;;;;;;;5115181;28;20200;-77
2022/10/18 05:28:29;;;;;;;32.10;19.63;;;;;;;;;;5114210;28;20235;-78
2022/10/18 05:31:01;;;;;;;37.83;19.10;;;;;;;;;;5114997;28;20203;-77
2022/10/18 05:33:28;;;;;;;33.37;19.07;;;;;;;;;;5114482;28;20235;-77
2022/10/18 05:35:56;;;;;;;31.10;18.27;;;;;;;;;;5114912;28;20243;-77
2022/10/18 05:38:23;;;;;;;27.33;17.90;;;;;;;;;;5100810;28;20233;-77
2022/10/18 05:40:50;;;;;;;24.97;17.83;;;;;;;;;;5094493;28;20305;-77
2022/10/18 05:43:17;;;;;;;27.30;18.03;;;;;;;;;;5094065;28;20232;-78
2022/10/18 05:45:47;;;;;;;25.63;17.43;;;;;;;;;;5094417;28;20201;-77
2022/10/18 05:48:16;;;;;;;30.43;17.60;;;;;;;;;;5093683;28;20255;-77
2022/10/18 05:50:43;;;;;;;25.47;15.70;;;;;;;;;;5094255;28;20216;-77
2022/10/18 05:53:11;;;;;;;24.77;15.97;;;;;;;;;;5093853;28;20722;-78
2022/10/18 05:55:38;;;;;;;25.70;16.77;;;;;;;;;;5108847;28;20227;-77
2022/10/18 05:58:05;;;;;;;24.80;16.63;;;;;;;;;;5113825;28;20259;-78
2022/10/18 06:00:32;;;;;;;21.60;15.23;;;;;;;;;;5109474;28;20573;-78
2022/10/18 06:02:59;;;;;;;24.23;14.90;;;;;;;;;;5114029;28;20232;-78
2022/10/18 06:05:28;;;;;;;27.33;16.00;;;;;;;;;;5114563;28;20578;-78
2022/10/18 06:07:56;;;;;;;25.03;16.03;;;;;;;;;;5096231;28;20247;-78
2022/10/18 06:10:23;;;;;;;27.73;15.47;;;;;;;;;;5093623;28;20216;-78
2022/10/18 06:12:51;;;;;;;24.83;15.77;;;;;;;;;;5093476;28;20259;-78
2022/10/18 06:15:18;;;;;;;22.13;15.17;;;;;;;;;;5093534;28;20231;-78
2022/10/18 06:17:45;;;;;;;26.10;15.60;;;;;;;;;;5093080;28;20667;-78
2022/10/18 06:20:13;;;;;;;26.33;14.67;;;;;;;;;;5111941;28;20196;-78
2022/10/18 06:22:41;;;;;;;21.87;15.37;;;;;;;;;;5113608;28;20236;-78
2022/10/18 06:25:09;;;;;;;22.83;15.17;;;;;;;;;;5113732;28;20226;-78
2022/10/18 06:27:36;;;;;;;21.73;15.70;;;;;;;;;;5113223;28;20242;-78
2022/10/18 06:30:03;;;;;;;20.87;15.10;;;;;;;;;;5114155;28;20294;-78
2022/10/18 06:32:30;;;;;;;28.97;17.30;;;;;;;;;;5113504;28;20251;-78
2022/10/18 06:34:57;;;;;;;21.63;16.33;;;;;;;;;;5113759;28;20211;-78
2022/10/18 06:37:24;;;;;;;21.37;16.17;;;;;;;;;;5113441;28;20239;-78
2022/10/18 06:39:52;;;;;;;26.10;17.10;;;;;;;;;;5113303;28;20219;-78
2022/10/18 06:42:19;;;;;;;26.70;17.77;;;;;;;;;;5109036;28;20238;-78
2022/10/18 06:44:46;;;;;;;30.93;19.23;;;;;;;;;;5110382;28;20207;-78
2022/10/18 06:47:13;;;;;;;27.77;18.60;;;;;;;;;;5109459;28;20239;-78
2022/10/18 06:49:40;;;;;;;24.40;18.23;;;;;;;;;;5112952;28;20728;-78
2022/10/18 06:52:08;;;;;;;30.03;18.93;;;;;;;;;;5112386;28;20238;-78
2022/10/18 06:54:35;;;;;;;30.40;17.93;;;;;;;;;;5112087;28;20208;-78
2022/10/18 06:57:04;;;;;;;32.97;19.30;;;;;;;;;;5112520;28;20220;-78
2022/10/18 06:59:31;;;;;;;27.27;17.70;;;;;;;;;;5111998;28;20223;-78
2022/10/18 07:01:58;;;;;;;32.07;18.83;;;;;;;;;;5112331;27;20219;-78
2022/10/18 07:04:28;;;;;;;26.80;18.33;;;;;;;;;;5112646;28;20208;-78
2022/10/18 07:06:55;;;;;;;28.17;18.70;;;;;;;;;;5112219;27;20257;-78
2022/10/18 07:09:22;;;;;;;31.73;19.87;;;;;;;;;;5112143;28;20224;-78
2022/10/18 07:11:51;;;;;;;36.60;20.87;;;;;;;;;;5112026;28;20211;-78
2022/10/18 07:14:20;;;;;;;33.40;20.77;;;;;;;;;;5101487;28;20580;-77
2022/10/18 07:16:47;;;;;;;30.07;20.50;;;;;;;;;;5106246;28;20680;-79
2022/10/18 07:19:15;;;;;;;27.93;19.63;;;;;;;;;;5111106;28;20231;-78
2022/10/18 07:21:42;;;;;;;28.37;19.03;;;;;;;;;;5092066;28;20727;-78
2022/10/18 07:24:09;;;;;;;29.67;20.53;;;;;;;;;;5092875;28;20746;-78
2022/10/18 07:26:36;;;;;;;28.17;18.70;;;;;;;;;;5106039;28;20208;-78
2022/10/18 07:29:05;;;;;;;33.20;19.97;;;;;;;;;;5111652;27;20231;-78
2022/10/18 07:31:34;;;;;;;34.07;22.30;;;;;;;;;;5112007;28;20215;-79
2022/10/18 07:34:01;;;;;;;28.50;20.00;;;;;;;;;;5111254;28;20234;-79
2022/10/18 07:36:29;;;;;;;30.47;18.73;;;;;;;;;;5111485;28;20900;-79
2022/10/18 07:38:56;;;;;;;24.43;17.83;;;;;;;;;;5111137;28;20238;-78
2022/10/18 07:41:23;;;;;;;25.80;17.67;;;;;;;;;;5111688;28;20208;-79
2022/10/18 07:43:51;;;;;;;25.90;18.83;;;;;;;;;;5111154;28;20238;-79
2022/10/18 07:46:18;;;;;;;26.53;18.77;;;;;;;;;;5111583;28;20814;-79
2022/10/18 07:48:47;;;;;;;32.30;18.33;;;;;;;;;;5111282;28;20234;-78
2022/10/18 07:51:14;;;;;;;23.87;17.70;;;;;;;;;;5111723;28;20203;-78
2022/10/18 07:53:41;;;;;;;29.00;18.47;;;;;;;;;;5111385;28;20250;-78
2022/10/18 07:56:10;;;;;;;25.00;16.77;;;;;;;;;;5110643;28;20220;-78
2022/10/18 07:58:37;;;;;;;21.97;16.57;;;;;;;;;;5110649;28;20576;-78
2022/10/18 08:01:05;;;;;;;20.93;15.70;;;;;;;;;;5111216;28;20664;-78
2022/10/18 08:03:32;;;;;;;22.50;15.90;;;;;;;;;;5099900;28;20231;-79
2022/10/18 08:06:01;;;;;;;24.57;16.57;;;;;;;;;;5111770;28;20207;-78
2022/10/18 08:08:28;;;;;;;20.07;16.27;;;;;;;;;;5110514;28;20236;-78
2022/10/18 08:10:56;;;;;;;22.47;15.77;;;;;;;;;;5111415;28;20676;-78
2022/10/18 08:13:23;;;;;;;25.27;15.83;;;;;;;;;;5110851;28;20242;-78
2022/10/18 08:15:50;;;;;;;19.10;15.50;;;;;;;;;;5111153;28;20239;-78
2022/10/18 08:18:17;;;;;;;20.73;15.27;;;;;;;;;;5110542;28;20251;-78
2022/10/18 08:20:45;;;;;;;19.10;14.37;;;;;;;;;;5111379;28;20203;-78
2022/10/18 08:23:13;;;;;;;15.83;13.00;;;;;;;;;;5110868;28;20266;-78
2022/10/18 08:25:40;;;;;;;15.53;11.83;;;;;;;;;;5111539;28;20215;-78
2022/10/18 08:28:08;;;;;;;14.83;11.43;;;;;;;;;;5110508;28;20318;-78
2022/10/18 08:30:35;;;;;;;16.90;12.40;;;;;;;;;;5111513;28;20218;-78
2022/10/18 08:33:03;;;;;;;14.40;10.97;;;;;;;;;;5110802;28;20224;-78
2022/10/18 08:35:30;;;;;;;13.23;11.23;;;;;;;;;;5110915;28;20239;-78
2022/10/18 08:37:58;;;;;;;15.47;11.40;;;;;;;;;;5110392;28;20239;-78
2022/10/18 08:40:27;;;;;;;12.73;9.87;;;;;;;;;;5111343;28;20214;-78
2022/10/18 08:43:03;;;;;;;14.77;10.70;;;;;;;;;;5110885;28;20263;-78
2022/10/18 08:45:31;;;;;;;12.33;10.30;;;;;;;;;;5106281;28;20204;-78
2022/10/18 08:47:58;;;;;;;11.47;10.27;;;;;;;;;;5110355;28;20247;-78
2022/10/18 08:50:27;;;;;;;15.60;10.57;;;;;;;;;;5111267;28;20212;-78
2022/10/18 08:52:58;;;;;;;13.13;10.37;;;;;;;;;;5110808;28;20242;-79
2022/10/18 08:55:28;;;;;;;12.63;9.93;;;;;;;;;;5115187;28;20232;-79
2022/10/18 08:57:57;;;;;;;12.80;10.60;;;;;;;;;;5114566;28;20235;-79
2022/10/18 09:00:25;;;;;;;12.63;9.55;;;;;;;;;;5115184;28;20231;-79
2022/10/18 09:03:04;;;;;;;12.43;10.07;;;;;;;;;;5114860;28;20236;-78
2022/10/18 09:05:38;;;;;;;12.80;10.40;;;;;;;;;;5114875;28;20253;-79
2022/10/18 09:08:18;;;;;;;10.07;8.80;;;;;;;;;;5114377;28;20231;-79
2022/10/18 09:10:53;;;;;;;13.87;8.40;;;;;;;;;;5114642;27;20219;-79
2022/10/18 09:13:30;;;;;;;15.68;8.85;;;;;;;;;;5108782;28;20228;-79
2022/10/18 09:15:59;;;;;;;12.70;8.27;;;;;;;;;;5106721;27;20234;-79
2022/10/18 09:18:37;;;;;;;11.10;9.00;;;;;;;;;;5114031;28;20236;-79
2022/10/18 09:21:09;;;;;;;10.23;9.15;;;;;;;;;;5114346;27;20200;-78
2022/10/18 09:23:42;;;;;;;9.93;8.45;;;;;;;;;;5105717;28;20228;-79
2022/10/18 09:26:15;;;;;;;13.00;9.57;;;;;;;;;;5114153;28;20207;-79
2022/10/18 09:28:45;;;;;;;13.20;9.18;;;;;;;;;;5093823;28;20232;-79
2022/10/18 09:31:16;;;;;;;16.58;8.88;;;;;;;;;;5100809;28;20200;-79
2022/10/18 09:33:47;;;;;;;11.15;7.78;;;;;;;;;;5111286;27;20235;-79
2022/10/18 09:36:17;;;;;;;10.63;7.88;;;;;;;;;;5114061;28;20223;-79
2022/10/18 09:38:46;;;;;;;12.43;7.78;;;;;;;;;;5100389;28;20232;-79
2022/10/18 09:41:17;;;;;;;10.32;7.05;;;;;;;;;;5110609;28;20199;-79
2022/10/18 09:43:48;;;;;;;12.38;7.30;;;;;;;;;;5093848;28;20233;-79
2022/10/18 09:46:16;;;;;;;11.40;7.00;;;;;;;;;;5102158;28;20200;-78
2022/10/18 09:48:46;;;;;;;15.02;7.07;;;;;;;;;;5107131;28;20232;-79
2022/10/18 09:51:16;;;;;;;9.55;6.38;;;;;;;;;;5093619;28;20208;-79
2022/10/18 09:53:46;;;;;;;11.82;6.50;;;;;;;;;;5109527;28;20281;-79
2022/10/18 09:56:17;;;;;;;11.45;6.30;;;;;;;;;;5093499;28;20577;-79
2022/10/18 09:58:46;;;;;;;8.60;6.43;;;;;;;;;;5100323;28;20243;-79
2022/10/18 10:01:14;;;;;;;10.18;6.90;;;;;;;;;;5114112;28;20204;-79
2022/10/18 10:03:42;;;;;;;10.88;8.68;;;;;;;;;;5113498;28;20638;-78
2022/10/18 10:06:23;;;;;;;10.88;7.97;;;;;;;;;;5113560;28;20544;-79
2022/10/18 10:08:53;;;;;;;9.48;8.48;;;;;;;;;;5113296;28;20289;-79
2022/10/18 10:11:28;;;;;;;10.45;8.55;;;;;;;;;;5102649;28;20216;-79
2022/10/18 10:13:59;;;;;;;13.85;8.95;;;;;;;;;;5092866;28;20235;-79
2022/10/18 10:16:27;;;;;;;13.40;9.10;;;;;;;;;;5095273;28;20235;-78
2022/10/18 10:18:54;;;;;;;15.32;10.10;;;;;;;;;;5104195;28;20236;-79
2022/10/18 10:21:22;;;;;;;14.90;10.32;;;;;;;;;;5103671;28;20193;-78
2022/10/18 10:23:53;;;;;;;13.25;10.38;;;;;;;;;;5116987;27;20228;-78
2022/10/18 10:26:22;;;;;;;12.27;10.95;;;;;;;;;;5121832;27;20203;-78
2022/10/18 10:28:50;;;;;;;13.13;11.15;;;;;;;;;;5112372;28;20293;-79
2022/10/18 10:31:19;;;;;;;14.40;11.70;;;;;;;;;;5112871;28;20200;-78
2022/10/18 10:33:47;;;;;;;16.23;12.13;;;;;;;;;;5112338;27;20228;-79
2022/10/18 10:36:17;;;;;;;12.52;11.23;;;;;;;;;;5104304;28;20192;-78
2022/10/18 10:38:44;;;;;;;12.30;11.00;;;;;;;;;;5112061;28;20643;-78
2022/10/18 10:41:39;;;;;;;15.65;11.55;;;;;;;;;;5110548;22;20324;-89
2022/10/18 10:44:15;;;;;;;13.05;11.35;;;;;;;;;;5080369;28;20232;-84
2022/10/18 10:46:44;;;;;;;12.82;10.73;;;;;;;;;;5055175;28;20197;-89
2022/10/18 10:49:17;;;;;;;10.32;8.70;;;;;;;;;;5053294;28;20720;-89
2022/10/18 10:51:46;;;;;;;10.20;9.10;;;;;;;;;;5074690;28;20229;-92
2022/10/18 10:54:14;;;;;;;14.85;9.02;;;;;;;;;;5053495;28;20210;-91
2022/10/18 10:56:51;;;;;;;10.75;7.65;;;;;;;;;;5052743;28;20673;-91
2022/10/18 10:59:20;;;;;;;12.07;6.80;;;;;;;;;;5052249;28;20225;-88
2022/10/18 11:01:50;;;;;;;8.48;6.88;;;;;;;;;;5051906;28;20225;-89
2022/10/18 11:04:25;;;;;;;9.70;6.78;;;;;;;;;;5052809;28;20190;-90
2022/10/18 11:06:59;;;;;;;6.90;6.22;;;;;;;;;;5071415;28;20668;-90
2022/10/18 11:09:43;;;;;;;7.55;6.15;;;;;;;;;;5055108;28;20248;-91
2022/10/18 11:12:20;;;;;;;5.05;4.55;;;;;;;;;;5040435;28;20238;-89
2022/10/18 11:14:52;;;;;;;5.00;4.60;;;;;;;;;;5051696;28;20673;-89
2022/10/18 11:17:25;;;;;;;4.53;4.13;;;;;;;;;;5059875;28;20723;-89
2022/10/18 11:20:12;;;;;;;3.50;3.20;;;;;;;;;;5066841;28;20267;-88
2022/10/18 11:22:42;;;;;;;3.35;3.05;;;;;;;;;;5064399;28;20725;-89
2022/10/18 11:25:13;;;;;;;3.13;2.85;;;;;;;;;;5051803;28;20201;-89
2022/10/18 11:27:43;;;;;;;3.20;2.90;;;;;;;;;;5050234;28;20383;-89
2022/10/18 11:30:22;;;;;;;2.25;2.13;;;;;;;;;;5051368;28;20210;-89
2022/10/18 11:32:59;;;;;;;2.58;2.47;;;;;;;;;;5042030;28;20770;-89
2022/10/18 11:35:40;;;;;;;2.95;2.20;;;;;;;;;;5051481;28;20212;-88
2022/10/18 11:38:15;;;;;;;3.13;2.60;;;;;;;;;;5049457;28;20348;-89
2022/10/18 11:40:48;;;;;;;1.90;1.77;;;;;;;;;;5051427;28;20260;-89
2022/10/18 11:43:20;;;;;;;2.25;1.40;;;;;;;;;;5050420;28;20229;-90
2022/10/18 11:45:51;;;;;;;1.85;1.60;;;;;;;;;;5052829;28;20194;-90
2022/10/18 11:48:33;;;;;;;2.25;1.77;;;;;;;;;;5057262;28;20235;-89
2022/10/18 11:51:04;;;;;;;1.90;1.80;;;;;;;;;;5031141;28;20222;-89
2022/10/18 11:53:37;;;;;;;2.03;1.90;;;;;;;;;;5035522;28;20222;-90
2022/10/18 11:56:12;;;;;;;1.85;1.70;;;;;;;;;;5051559;28;20202;-90
2022/10/18 11:58:47;;;;;;;1.55;1.40;;;;;;;;;;5052327;28;20237;-89
2022/10/18 12:01:22;;;;;;;1.63;1.52;;;;;;;;;;5051727;28;20309;-90
2022/10/18 12:03:55;;;;;;;1.40;1.30;;;;;;;;;;5050746;28;20728;-90
2022/10/18 12:06:24;;;;;;;1.92;1.60;;;;;;;;;;5052229;28;20598;-91
2022/10/18 12:08:54;;;;;;;1.50;1.40;;;;;;;;;;5051330;28;20229;-90
2022/10/18 12:11:25;;;;;;;2.00;1.30;;;;;;;;;;5052766;28;20258;-90
2022/10/18 12:13:55;;;;;;;1.85;1.48;;;;;;;;;;5051358;28;20238;-90
2022/10/18 12:16:25;;;;;;;3.42;1.40;;;;;;;;;;5051192;28;20666;-90
2022/10/18 12:18:58;;;;;;;2.10;1.30;;;;;;;;;;5050387;28;20237;-90
2022/10/18 12:21:28;;;;;;;4.47;1.60;;;;;;;;;;5057186;28;20221;-91
2022/10/18 12:23:57;;;;;;;1.30;1.20;;;;;;;;;;5076811;28;20247;-90
2022/10/18 12:26:26;;;;;;;2.35;1.50;;;;;;;;;;5060142;28;20209;-90
2022/10/18 12:29:01;;;;;;;6.72;2.45;;;;;;;;;;5071367;28;20233;-90
2022/10/18 12:31:32;;;;;;;4.07;1.48;;;;;;;;;;5076115;28;20233;-90
2022/10/18 12:34:04;;;;;;;1.55;1.08;;;;;;;;;;5066200;28;20705;-90
2022/10/18 12:36:43;;;;;;;1.67;0.82;;;;;;;;;;5069033;28;20198;-90
2022/10/18 12:39:18;;;;;;;1.88;0.98;;;;;;;;;;5055304;28;20226;-90
2022/10/18 12:41:50;;;;;;;0.90;0.90;;;;;;;;;;5062206;28;20232;-90
2022/10/18 12:44:20;;;;;;;1.45;0.90;;;;;;;;;;5056701;28;20244;-88
2022/10/18 12:46:49;;;;;;;0.80;0.80;;;;;;;;;;5054825;28;20206;-87
2022/10/18 12:49:21;;;;;;;1.75;1.00;;;;;;;;;;5054216;28;20202;-88
2022/10/18 12:51:53;;;;;;;1.52;0.73;;;;;;;;;;5050658;28;20679;-88
2022/10/18 12:54:23;;;;;;;1.40;0.70;;;;;;;;;;5054833;28;20233;-89
2022/10/18 12:56:53;;;;;;;0.60;0.60;;;;;;;;;;5053851;28;20194;-90
2022/10/18 12:59:53;;;;;;;1.52;1.20;;;;;;;;;;5054701;28;20195;-91
2022/10/18 13:02:23;;;;;;;0.60;0.60;;;;;;;;;;5054597;28;20233;-89
2022/10/18 13:04:53;;;;;;;0.70;0.70;;;;;;;;;;5055005;28;20206;-89
2022/10/18 13:07:22;;;;;;;1.00;0.80;;;;;;;;;;5055334;28;20232;-89
2022/10/18 13:10:08;;;;;;;0.63;0.63;;;;;;;;;;5055316;28;20206;-90
2022/10/18 13:12:50;;;;;;;3.13;0.93;;;;;;;;;;5050697;28;20244;-90
2022/10/18 13:15:37;;;;;;;0.70;0.70;;;;;;;;;;5058161;28;20198;-88
2022/10/18 13:18:08;;;;;;;2.95;0.93;;;;;;;;;;5057426;28;20288;-91
2022/10/18 13:20:44;;;;;;;0.88;0.68;;;;;;;;;;5057730;28;20229;-88
2022/10/18 13:23:19;;;;;;;0.68;0.68;;;;;;;;;;5055471;28;20249;-89
2022/10/18 13:25:53;;;;;;;1.42;0.80;;;;;;;;;;5056605;28;20186;-88
2022/10/18 13:31:38;;;;;;;0.73;0.73;;;;;;;;;;5057390;28;20660;-87
2022/10/18 13:34:24;;;;;;;2.30;0.98;;;;;;;;;;5060005;28;20320;-87
2022/10/18 13:36:58;;;;;;;2.13;0.88;;;;;;;;;;5072146;28;20189;-86
2022/10/18 13:39:27;;;;;;;2.05;1.30;;;;;;;;;;5079865;28;20233;-87
2022/10/18 13:42:13;;;;;;;1.35;1.23;;;;;;;;;;5069831;28;20293;-87
2022/10/18 13:44:48;;;;;;;1.40;1.30;;;;;;;;;;5092946;28;20261;-89
2022/10/18 13:47:54;;;;;;;1.40;1.30;;;;;;;;;;5078387;28;20229;-89
2022/10/18 13:56:50;;;;;;;1.02;1.00;;;;;;;;;;5079535;28;20180;-88
2022/10/18 13:59:40;;;;;;;1.02;1.02;;;;;;;;;;5076342;28;20256;-87
2022/10/18 14:02:28;;;;;;;1.65;1.08;;;;;;;;;;5076793;28;20246;-87
2022/10/18 14:05:06;;;;;;;1.27;0.70;;;;;;;;;;5074135;28;20190;-87
2022/10/18 14:07:35;;;;;;;1.55;1.00;;;;;;;;;;5071932;28;20316;-86
2022/10/18 14:10:03;;;;;;;1.63;0.90;;;;;;;;;;5065723;28;20204;-87
2022/10/18 14:12:39;;;;;;;2.05;1.08;;;;;;;;;;5075748;28;20237;-86
2022/10/18 14:15:16;;;;;;;0.88;0.88;;;;;;;;;;5077845;28;20193;-86
2022/10/18 14:17:49;;;;;;;1.08;0.98;;;;;;;;;;5075593;28;20237;-86
2022/10/18 14:20:26;;;;;;;1.80;1.00;;;;;;;;;;5086417;28;20184;-86
2022/10/18 14:22:57;;;;;;;1.00;0.93;;;;;;;;;;5074811;28;20248;-86
2022/10/18 14:25:28;;;;;;;1.13;0.90;;;;;;;;;;5074733;28;20277;-86
2022/10/18 14:28:06;;;;;;;1.10;0.98;;;;;;;;;;5065862;28;20226;-86
2022/10/18 14:30:36;;;;;;;1.10;0.93;;;;;;;;;;5048891;28;20225;-86
2022/10/18 14:33:04;;;;;;;1.17;0.90;;;;;;;;;;5052301;28;20237;-86
2022/10/18 14:35:34;;;;;;;2.03;1.10;;;;;;;;;;5052429;28;20966;-86
2022/10/18 14:38:02;;;;;;;1.02;0.77;;;;;;;;;;5051243;28;20230;-87
2022/10/18 14:40:31;;;;;;;1.70;1.10;;;;;;;;;;5052342;28;20234;-87
2022/10/18 14:43:05;;;;;;;1.77;0.85;;;;;;;;;;5053788;28;20222;-86
2022/10/18 14:45:37;;;;;;;1.00;1.00;;;;;;;;;;5051989;28;20195;-87
2022/10/18 14:48:16;;;;;;;1.55;1.10;;;;;;;;;;5050931;28;20740;-87
2022/10/18 14:50:45;;;;;;;5.00;1.20;;;;;;;;;;5051532;28;20308;-86
2022/10/18 14:53:16;;;;;;;2.38;1.30;;;;;;;;;;5050110;28;20305;-86
2022/10/18 14:55:53;;;;;;;1.42;1.33;;;;;;;;;;5052224;28;20198;-87
2022/10/18 14:58:22;;;;;;;1.25;1.15;;;;;;;;;;5038884;28;20339;-87